sensor_id;sensor_type;location;lat;lon;timestamp;P1;durP1;ratioP1;P2;durP2;ratioP2
76292;SDS011;67256;51.154;4.164;2023-11-21T00:00:31;21.77;;;15.38;;
76292;SDS011;67256;51.154;4.164;2023-11-21T00:02:57;24.77;;;16.33;;
76292;SDS011;67256;51.154;4.164;2023-11-21T00:05:23;26.25;;;16.38;;
76292;SDS011;67256;51.154;4.164;2023-11-21T00:07:49;25.23;;;16.75;;
76292;SDS011;67256;51.154;4.164;2023-11-21T00:10:16;27.70;;;17.98;;
76292;SDS011;67256;51.154;4.164;2023-11-21T00:12:42;25.42;;;16.95;;
76292;SDS011;67256;51.154;4.164;2023-11-21T00:15:08;21.50;;;15.80;;
76292;SDS011;67256;51.154;4.164;2023-11-21T00:17:36;25.15;;;15.95;;
76292;SDS011;67256;51.154;4.164;2023-11-21T00:20:02;26.42;;;16.65;;
76292;SDS011;67256;51.154;4.164;2023-11-21T00:22:31;22.08;;;16.83;;
76292;SDS011;67256;51.154;4.164;2023-11-21T00:24:58;23.45;;;15.85;;
76292;SDS011;67256;51.154;4.164;2023-11-21T00:27:24;20.65;;;15.10;;
76292;SDS011;67256;51.154;4.164;2023-11-21T00:29:49;22.30;;;16.00;;
76292;SDS011;67256;51.154;4.164;2023-11-21T00:32:15;25.90;;;16.40;;
76292;SDS011;67256;51.154;4.164;2023-11-21T00:34:42;25.30;;;16.27;;
76292;SDS011;67256;51.154;4.164;2023-11-21T00:37:07;24.95;;;16.23;;
76292;SDS011;67256;51.154;4.164;2023-11-21T00:39:33;24.08;;;15.52;;
76292;SDS011;67256;51.154;4.164;2023-11-21T00:42:00;24.83;;;17.02;;
76292;SDS011;67256;51.154;4.164;2023-11-21T00:44:26;26.20;;;15.23;;
76292;SDS011;67256;51.154;4.164;2023-11-21T00:46:52;23.70;;;15.80;;
76292;SDS011;67256;51.154;4.164;2023-11-21T00:49:17;23.88;;;16.33;;
76292;SDS011;67256;51.154;4.164;2023-11-21T00:51:43;23.95;;;15.50;;
76292;SDS011;67256;51.154;4.164;2023-11-21T00:54:09;23.77;;;15.07;;
76292;SDS011;67256;51.154;4.164;2023-11-21T00:56:35;22.27;;;14.43;;
76292;SDS011;67256;51.154;4.164;2023-11-21T00:59:00;27.13;;;16.27;;
76292;SDS011;67256;51.154;4.164;2023-11-21T01:01:26;27.35;;;17.00;;
76292;SDS011;67256;51.154;4.164;2023-11-21T01:03:52;27.40;;;16.13;;
76292;SDS011;67256;51.154;4.164;2023-11-21T01:06:19;26.38;;;16.27;;
76292;SDS011;67256;51.154;4.164;2023-11-21T01:08:44;25.10;;;16.48;;
76292;SDS011;67256;51.154;4.164;2023-11-21T01:11:11;26.63;;;17.13;;
76292;SDS011;67256;51.154;4.164;2023-11-21T01:13:40;27.00;;;17.25;;
76292;SDS011;67256;51.154;4.164;2023-11-21T01:16:07;24.35;;;17.23;;
76292;SDS011;67256;51.154;4.164;2023-11-21T01:18:34;27.42;;;17.50;;
76292;SDS011;67256;51.154;4.164;2023-11-21T01:21:01;25.05;;;16.63;;
76292;SDS011;67256;51.154;4.164;2023-11-21T01:23:27;31.90;;;18.10;;
76292;SDS011;67256;51.154;4.164;2023-11-21T01:25:55;31.00;;;18.05;;
76292;SDS011;67256;51.154;4.164;2023-11-21T01:28:21;28.20;;;17.60;;
76292;SDS011;67256;51.154;4.164;2023-11-21T01:30:47;27.70;;;16.65;;
76292;SDS011;67256;51.154;4.164;2023-11-21T01:33:14;26.55;;;16.70;;
76292;SDS011;67256;51.154;4.164;2023-11-21T01:35:40;27.20;;;17.90;;
76292;SDS011;67256;51.154;4.164;2023-11-21T01:38:07;23.95;;;17.00;;
76292;SDS011;67256;51.154;4.164;2023-11-21T01:40:33;28.00;;;17.20;;
76292;SDS011;67256;51.154;4.164;2023-11-21T01:42:59;27.70;;;16.17;;
76292;SDS011;67256;51.154;4.164;2023-11-21T01:45:28;26.40;;;17.65;;
76292;SDS011;67256;51.154;4.164;2023-11-21T01:47:56;26.20;;;16.15;;
76292;SDS011;67256;51.154;4.164;2023-11-21T01:50:23;31.38;;;16.20;;
76292;SDS011;67256;51.154;4.164;2023-11-21T01:52:50;28.67;;;16.98;;
76292;SDS011;67256;51.154;4.164;2023-11-21T01:55:18;24.83;;;16.02;;
76292;SDS011;67256;51.154;4.164;2023-11-21T01:57:45;27.83;;;15.93;;
76292;SDS011;67256;51.154;4.164;2023-11-21T02:00:13;25.95;;;16.48;;
76292;SDS011;67256;51.154;4.164;2023-11-21T02:02:44;26.75;;;16.88;;
76292;SDS011;67256;51.154;4.164;2023-11-21T02:05:11;26.00;;;17.08;;
76292;SDS011;67256;51.154;4.164;2023-11-21T02:07:40;30.35;;;17.20;;
76292;SDS011;67256;51.154;4.164;2023-11-21T02:10:08;29.33;;;17.05;;
76292;SDS011;67256;51.154;4.164;2023-11-21T02:12:34;28.75;;;16.55;;
76292;SDS011;67256;51.154;4.164;2023-11-21T02:15:03;27.13;;;17.55;;
76292;SDS011;67256;51.154;4.164;2023-11-21T02:17:35;27.05;;;16.98;;
76292;SDS011;67256;51.154;4.164;2023-11-21T02:20:01;30.05;;;16.80;;
76292;SDS011;67256;51.154;4.164;2023-11-21T02:22:29;28.77;;;17.40;;
76292;SDS011;67256;51.154;4.164;2023-11-21T02:24:59;31.38;;;19.02;;
76292;SDS011;67256;51.154;4.164;2023-11-21T02:27:24;26.33;;;16.08;;
76292;SDS011;67256;51.154;4.164;2023-11-21T02:29:52;27.58;;;16.00;;
76292;SDS011;67256;51.154;4.164;2023-11-21T02:32:17;22.77;;;15.90;;
76292;SDS011;67256;51.154;4.164;2023-11-21T02:34:45;27.73;;;16.95;;
76292;SDS011;67256;51.154;4.164;2023-11-21T02:37:10;32.72;;;17.63;;
76292;SDS011;67256;51.154;4.164;2023-11-21T02:39:36;29.38;;;17.13;;
76292;SDS011;67256;51.154;4.164;2023-11-21T02:42:03;30.75;;;17.55;;
76292;SDS011;67256;51.154;4.164;2023-11-21T02:44:29;29.25;;;18.35;;
76292;SDS011;67256;51.154;4.164;2023-11-21T02:46:55;27.50;;;18.25;;
76292;SDS011;67256;51.154;4.164;2023-11-21T02:49:22;30.25;;;17.27;;
76292;SDS011;67256;51.154;4.164;2023-11-21T02:51:48;33.00;;;18.13;;
76292;SDS011;67256;51.154;4.164;2023-11-21T02:54:14;28.38;;;18.58;;
76292;SDS011;67256;51.154;4.164;2023-11-21T02:56:42;26.95;;;17.25;;
76292;SDS011;67256;51.154;4.164;2023-11-21T02:59:07;26.85;;;18.42;;
76292;SDS011;67256;51.154;4.164;2023-11-21T03:01:34;29.10;;;18.70;;
76292;SDS011;67256;51.154;4.164;2023-11-21T03:03:59;30.70;;;18.48;;
76292;SDS011;67256;51.154;4.164;2023-11-21T03:06:26;31.67;;;19.42;;
76292;SDS011;67256;51.154;4.164;2023-11-21T03:08:52;32.13;;;18.63;;
76292;SDS011;67256;51.154;4.164;2023-11-21T03:11:18;30.73;;;19.77;;
76292;SDS011;67256;51.154;4.164;2023-11-21T03:13:44;30.48;;;18.20;;
76292;SDS011;67256;51.154;4.164;2023-11-21T03:16:10;28.65;;;18.52;;
76292;SDS011;67256;51.154;4.164;2023-11-21T03:18:37;31.40;;;18.77;;
76292;SDS011;67256;51.154;4.164;2023-11-21T03:21:04;31.95;;;19.38;;
76292;SDS011;67256;51.154;4.164;2023-11-21T03:23:30;30.95;;;18.27;;
76292;SDS011;67256;51.154;4.164;2023-11-21T03:25:57;29.95;;;18.60;;
76292;SDS011;67256;51.154;4.164;2023-11-21T03:28:24;29.88;;;18.52;;
76292;SDS011;67256;51.154;4.164;2023-11-21T03:30:52;28.02;;;17.88;;
76292;SDS011;67256;51.154;4.164;2023-11-21T03:33:17;30.92;;;19.08;;
76292;SDS011;67256;51.154;4.164;2023-11-21T03:35:43;29.17;;;19.80;;
76292;SDS011;67256;51.154;4.164;2023-11-21T03:38:09;31.17;;;18.95;;
76292;SDS011;67256;51.154;4.164;2023-11-21T03:40:36;30.17;;;18.92;;
76292;SDS011;67256;51.154;4.164;2023-11-21T03:43:02;28.40;;;19.23;;
76292;SDS011;67256;51.154;4.164;2023-11-21T03:45:28;29.80;;;20.52;;
76292;SDS011;67256;51.154;4.164;2023-11-21T03:47:54;28.23;;;19.48;;
76292;SDS011;67256;51.154;4.164;2023-11-21T03:50:19;29.88;;;19.98;;
76292;SDS011;67256;51.154;4.164;2023-11-21T03:52:45;34.22;;;20.70;;
76292;SDS011;67256;51.154;4.164;2023-11-21T03:55:11;35.47;;;19.83;;
76292;SDS011;67256;51.154;4.164;2023-11-21T03:57:37;25.77;;;18.80;;
76292;SDS011;67256;51.154;4.164;2023-11-21T04:00:03;30.80;;;19.20;;
76292;SDS011;67256;51.154;4.164;2023-11-21T04:02:33;31.33;;;19.30;;
76292;SDS011;67256;51.154;4.164;2023-11-21T04:04:59;29.02;;;19.25;;
76292;SDS011;67256;51.154;4.164;2023-11-21T04:07:26;30.13;;;19.00;;
76292;SDS011;67256;51.154;4.164;2023-11-21T04:09:52;27.13;;;18.17;;
76292;SDS011;67256;51.154;4.164;2023-11-21T04:12:18;30.27;;;18.75;;
76292;SDS011;67256;51.154;4.164;2023-11-21T04:14:44;33.00;;;19.38;;
76292;SDS011;67256;51.154;4.164;2023-11-21T04:17:10;26.77;;;18.35;;
76292;SDS011;67256;51.154;4.164;2023-11-21T04:19:36;27.17;;;18.73;;
76292;SDS011;67256;51.154;4.164;2023-11-21T04:22:02;27.48;;;18.60;;
76292;SDS011;67256;51.154;4.164;2023-11-21T04:24:29;31.13;;;19.38;;
76292;SDS011;67256;51.154;4.164;2023-11-21T04:26:55;29.25;;;18.58;;
76292;SDS011;67256;51.154;4.164;2023-11-21T04:29:20;29.52;;;18.10;;
76292;SDS011;67256;51.154;4.164;2023-11-21T04:31:46;30.23;;;18.90;;
76292;SDS011;67256;51.154;4.164;2023-11-21T04:34:14;30.17;;;17.63;;
76292;SDS011;67256;51.154;4.164;2023-11-21T04:36:40;33.22;;;19.00;;
76292;SDS011;67256;51.154;4.164;2023-11-21T04:39:06;28.90;;;18.70;;
76292;SDS011;67256;51.154;4.164;2023-11-21T04:41:32;33.00;;;18.70;;
76292;SDS011;67256;51.154;4.164;2023-11-21T04:43:58;29.27;;;18.08;;
76292;SDS011;67256;51.154;4.164;2023-11-21T04:46:25;24.10;;;17.92;;
76292;SDS011;67256;51.154;4.164;2023-11-21T04:48:51;27.38;;;17.25;;
76292;SDS011;67256;51.154;4.164;2023-11-21T04:51:17;35.45;;;19.25;;
76292;SDS011;67256;51.154;4.164;2023-11-21T04:53:43;32.10;;;19.65;;
76292;SDS011;67256;51.154;4.164;2023-11-21T04:56:09;28.95;;;18.20;;
76292;SDS011;67256;51.154;4.164;2023-11-21T04:58:34;28.27;;;17.98;;
76292;SDS011;67256;51.154;4.164;2023-11-21T05:01:01;27.92;;;18.98;;
76292;SDS011;67256;51.154;4.164;2023-11-21T05:03:26;25.40;;;17.50;;
76292;SDS011;67256;51.154;4.164;2023-11-21T05:05:54;33.55;;;19.45;;
76292;SDS011;67256;51.154;4.164;2023-11-21T05:08:21;28.45;;;18.83;;
76292;SDS011;67256;51.154;4.164;2023-11-21T05:10:47;28.23;;;19.60;;
76292;SDS011;67256;51.154;4.164;2023-11-21T05:13:14;31.05;;;18.73;;
76292;SDS011;67256;51.154;4.164;2023-11-21T05:15:40;26.92;;;18.08;;
76292;SDS011;67256;51.154;4.164;2023-11-21T05:18:06;30.63;;;19.67;;
76292;SDS011;67256;51.154;4.164;2023-11-21T05:20:32;31.70;;;19.80;;
76292;SDS011;67256;51.154;4.164;2023-11-21T05:22:58;29.90;;;19.48;;
76292;SDS011;67256;51.154;4.164;2023-11-21T05:25:24;27.02;;;18.80;;
76292;SDS011;67256;51.154;4.164;2023-11-21T05:27:50;30.80;;;18.70;;
76292;SDS011;67256;51.154;4.164;2023-11-21T05:30:16;27.65;;;20.25;;
76292;SDS011;67256;51.154;4.164;2023-11-21T05:32:41;29.10;;;18.98;;
76292;SDS011;67256;51.154;4.164;2023-11-21T05:35:07;30.63;;;18.77;;
76292;SDS011;67256;51.154;4.164;2023-11-21T05:37:37;29.92;;;18.17;;
76292;SDS011;67256;51.154;4.164;2023-11-21T05:40:07;26.67;;;18.15;;
76292;SDS011;67256;51.154;4.164;2023-11-21T05:42:34;33.15;;;18.80;;
76292;SDS011;67256;51.154;4.164;2023-11-21T05:45:00;30.20;;;18.15;;
76292;SDS011;67256;51.154;4.164;2023-11-21T05:47:42;30.38;;;18.33;;
76292;SDS011;67256;51.154;4.164;2023-11-21T05:50:11;35.25;;;17.75;;
76292;SDS011;67256;51.154;4.164;2023-11-21T05:52:39;29.83;;;18.03;;
76292;SDS011;67256;51.154;4.164;2023-11-21T05:57:35;28.15;;;17.75;;
76292;SDS011;67256;51.154;4.164;2023-11-21T06:00:09;34.53;;;17.88;;
76292;SDS011;67256;51.154;4.164;2023-11-21T06:02:45;29.42;;;17.55;;
76292;SDS011;67256;51.154;4.164;2023-11-21T06:05:23;30.70;;;17.48;;
76292;SDS011;67256;51.154;4.164;2023-11-21T06:07:50;33.08;;;18.65;;
76292;SDS011;67256;51.154;4.164;2023-11-21T06:10:17;32.70;;;18.23;;
76292;SDS011;67256;51.154;4.164;2023-11-21T06:12:44;34.08;;;18.35;;
76292;SDS011;67256;51.154;4.164;2023-11-21T06:15:10;33.85;;;19.27;;
76292;SDS011;67256;51.154;4.164;2023-11-21T06:17:40;31.02;;;19.33;;
76292;SDS011;67256;51.154;4.164;2023-11-21T06:20:07;30.60;;;18.52;;
76292;SDS011;67256;51.154;4.164;2023-11-21T06:22:39;31.15;;;17.85;;
76292;SDS011;67256;51.154;4.164;2023-11-21T06:25:06;30.73;;;18.60;;
76292;SDS011;67256;51.154;4.164;2023-11-21T06:27:44;32.28;;;18.45;;
76292;SDS011;67256;51.154;4.164;2023-11-21T06:30:11;31.27;;;16.48;;
76292;SDS011;67256;51.154;4.164;2023-11-21T06:32:39;42.05;;;19.88;;
76292;SDS011;67256;51.154;4.164;2023-11-21T06:35:05;42.45;;;20.23;;
76292;SDS011;67256;51.154;4.164;2023-11-21T06:37:32;37.60;;;20.30;;
76292;SDS011;67256;51.154;4.164;2023-11-21T06:39:59;38.35;;;20.52;;
76292;SDS011;67256;51.154;4.164;2023-11-21T06:42:25;34.72;;;20.58;;
76292;SDS011;67256;51.154;4.164;2023-11-21T06:44:52;42.45;;;21.92;;
76292;SDS011;67256;51.154;4.164;2023-11-21T06:47:19;37.65;;;21.50;;
76292;SDS011;67256;51.154;4.164;2023-11-21T06:49:45;43.45;;;21.63;;
76292;SDS011;67256;51.154;4.164;2023-11-21T06:52:14;34.83;;;21.88;;
76292;SDS011;67256;51.154;4.164;2023-11-21T06:54:40;40.33;;;21.17;;
76292;SDS011;67256;51.154;4.164;2023-11-21T06:57:06;41.85;;;20.75;;
76292;SDS011;67256;51.154;4.164;2023-11-21T06:59:33;39.25;;;21.10;;
76292;SDS011;67256;51.154;4.164;2023-11-21T07:01:59;42.78;;;21.38;;
76292;SDS011;67256;51.154;4.164;2023-11-21T07:04:24;37.53;;;20.60;;
76292;SDS011;67256;51.154;4.164;2023-11-21T07:06:53;38.67;;;21.65;;
76292;SDS011;67256;51.154;4.164;2023-11-21T07:09:19;38.00;;;23.20;;
76292;SDS011;67256;51.154;4.164;2023-11-21T07:11:50;38.88;;;20.35;;
76292;SDS011;67256;51.154;4.164;2023-11-21T07:14:17;36.97;;;20.92;;
76292;SDS011;67256;51.154;4.164;2023-11-21T07:16:44;34.45;;;20.63;;
76292;SDS011;67256;51.154;4.164;2023-11-21T07:19:11;39.45;;;21.67;;
76292;SDS011;67256;51.154;4.164;2023-11-21T07:21:37;40.83;;;20.98;;
76292;SDS011;67256;51.154;4.164;2023-11-21T07:24:04;41.75;;;21.05;;
76292;SDS011;67256;51.154;4.164;2023-11-21T07:26:31;40.92;;;20.67;;
76292;SDS011;67256;51.154;4.164;2023-11-21T07:28:58;40.70;;;20.73;;
76292;SDS011;67256;51.154;4.164;2023-11-21T07:31:24;45.08;;;22.73;;
76292;SDS011;67256;51.154;4.164;2023-11-21T07:33:50;47.83;;;21.85;;
76292;SDS011;67256;51.154;4.164;2023-11-21T07:36:17;37.75;;;20.35;;
76292;SDS011;67256;51.154;4.164;2023-11-21T07:38:46;50.70;;;22.63;;
76292;SDS011;67256;51.154;4.164;2023-11-21T07:41:12;47.85;;;23.60;;
76292;SDS011;67256;51.154;4.164;2023-11-21T07:43:40;50.08;;;21.52;;
76292;SDS011;67256;51.154;4.164;2023-11-21T07:46:06;45.38;;;22.30;;
76292;SDS011;67256;51.154;4.164;2023-11-21T07:48:33;44.53;;;23.25;;
76292;SDS011;67256;51.154;4.164;2023-11-21T07:51:00;51.47;;;22.02;;
76292;SDS011;67256;51.154;4.164;2023-11-21T07:53:29;49.10;;;23.85;;
76292;SDS011;67256;51.154;4.164;2023-11-21T07:55:57;43.70;;;22.90;;
76292;SDS011;67256;51.154;4.164;2023-11-21T07:58:24;45.85;;;21.75;;
76292;SDS011;67256;51.154;4.164;2023-11-21T08:00:51;39.15;;;20.30;;
76292;SDS011;67256;51.154;4.164;2023-11-21T08:03:17;33.10;;;19.92;;
76292;SDS011;67256;51.154;4.164;2023-11-21T08:05:43;35.70;;;19.75;;
76292;SDS011;67256;51.154;4.164;2023-11-21T08:08:09;28.05;;;17.13;;
76292;SDS011;67256;51.154;4.164;2023-11-21T08:10:35;24.95;;;17.27;;
76292;SDS011;67256;51.154;4.164;2023-11-21T08:13:01;32.03;;;17.48;;
76292;SDS011;67256;51.154;4.164;2023-11-21T08:15:28;30.25;;;17.83;;
76292;SDS011;67256;51.154;4.164;2023-11-21T08:17:57;28.30;;;17.23;;
76292;SDS011;67256;51.154;4.164;2023-11-21T08:20:26;24.88;;;17.05;;
76292;SDS011;67256;51.154;4.164;2023-11-21T08:22:53;29.02;;;18.25;;
76292;SDS011;67256;51.154;4.164;2023-11-21T08:25:20;24.10;;;15.63;;
76292;SDS011;67256;51.154;4.164;2023-11-21T08:27:46;24.05;;;15.25;;
76292;SDS011;67256;51.154;4.164;2023-11-21T08:30:12;25.00;;;14.88;;
76292;SDS011;67256;51.154;4.164;2023-11-21T08:32:39;26.33;;;15.52;;
76292;SDS011;67256;51.154;4.164;2023-11-21T08:35:06;22.27;;;14.75;;
76292;SDS011;67256;51.154;4.164;2023-11-21T08:37:32;26.92;;;14.90;;
76292;SDS011;67256;51.154;4.164;2023-11-21T08:40:02;21.88;;;14.07;;
76292;SDS011;67256;51.154;4.164;2023-11-21T08:42:34;24.70;;;14.02;;
76292;SDS011;67256;51.154;4.164;2023-11-21T08:45:00;22.58;;;13.27;;
76292;SDS011;67256;51.154;4.164;2023-11-21T08:47:26;20.20;;;12.95;;
76292;SDS011;67256;51.154;4.164;2023-11-21T08:49:52;22.90;;;12.68;;
76292;SDS011;67256;51.154;4.164;2023-11-21T08:52:18;21.48;;;13.75;;
76292;SDS011;67256;51.154;4.164;2023-11-21T08:54:50;23.58;;;14.63;;
76292;SDS011;67256;51.154;4.164;2023-11-21T08:57:23;23.23;;;14.73;;
76292;SDS011;67256;51.154;4.164;2023-11-21T08:59:48;25.25;;;13.55;;
76292;SDS011;67256;51.154;4.164;2023-11-21T09:02:20;21.02;;;13.55;;
76292;SDS011;67256;51.154;4.164;2023-11-21T09:04:51;23.85;;;15.50;;
76292;SDS011;67256;51.154;4.164;2023-11-21T09:07:20;22.05;;;12.57;;
76292;SDS011;67256;51.154;4.164;2023-11-21T09:09:47;24.23;;;13.43;;
76292;SDS011;67256;51.154;4.164;2023-11-21T09:12:13;19.45;;;12.30;;
76292;SDS011;67256;51.154;4.164;2023-11-21T09:14:39;17.42;;;12.40;;
76292;SDS011;67256;51.154;4.164;2023-11-21T09:17:05;18.50;;;11.27;;
76292;SDS011;67256;51.154;4.164;2023-11-21T09:19:39;16.23;;;11.07;;
76292;SDS011;67256;51.154;4.164;2023-11-21T09:22:05;15.75;;;10.48;;
76292;SDS011;67256;51.154;4.164;2023-11-21T09:24:31;17.05;;;9.90;;
76292;SDS011;67256;51.154;4.164;2023-11-21T09:26:58;17.95;;;10.05;;
76292;SDS011;67256;51.154;4.164;2023-11-21T09:29:25;14.73;;;9.73;;
76292;SDS011;67256;51.154;4.164;2023-11-21T09:31:51;13.20;;;9.07;;
76292;SDS011;67256;51.154;4.164;2023-11-21T09:34:17;13.55;;;9.48;;
76292;SDS011;67256;51.154;4.164;2023-11-21T09:36:46;12.30;;;8.98;;
76292;SDS011;67256;51.154;4.164;2023-11-21T09:39:13;12.00;;;8.60;;
76292;SDS011;67256;51.154;4.164;2023-11-21T09:41:43;12.68;;;8.90;;
76292;SDS011;67256;51.154;4.164;2023-11-21T09:44:14;13.48;;;8.98;;
76292;SDS011;67256;51.154;4.164;2023-11-21T09:46:44;16.27;;;9.35;;
76292;SDS011;67256;51.154;4.164;2023-11-21T09:49:14;13.90;;;8.93;;
76292;SDS011;67256;51.154;4.164;2023-11-21T09:51:42;13.55;;;8.43;;
76292;SDS011;67256;51.154;4.164;2023-11-21T09:54:10;21.17;;;10.32;;
76292;SDS011;67256;51.154;4.164;2023-11-21T09:56:39;12.82;;;8.05;;
76292;SDS011;67256;51.154;4.164;2023-11-21T09:59:05;15.05;;;8.57;;
76292;SDS011;67256;51.154;4.164;2023-11-21T10:01:35;13.18;;;8.68;;
76292;SDS011;67256;51.154;4.164;2023-11-21T10:04:02;15.88;;;8.15;;
76292;SDS011;67256;51.154;4.164;2023-11-21T10:06:30;10.35;;;6.10;;
76292;SDS011;67256;51.154;4.164;2023-11-21T10:08:57;14.30;;;6.97;;
76292;SDS011;67256;51.154;4.164;2023-11-21T10:11:25;12.32;;;7.10;;
76292;SDS011;67256;51.154;4.164;2023-11-21T10:14:01;9.43;;;6.55;;
76292;SDS011;67256;51.154;4.164;2023-11-21T10:16:29;12.35;;;6.38;;
76292;SDS011;67256;51.154;4.164;2023-11-21T10:18:57;14.70;;;5.85;;
76292;SDS011;67256;51.154;4.164;2023-11-21T10:21:24;9.98;;;6.03;;
76292;SDS011;67256;51.154;4.164;2023-11-21T10:23:51;11.48;;;5.68;;
76292;SDS011;67256;51.154;4.164;2023-11-21T10:26:18;11.32;;;5.28;;
76292;SDS011;67256;51.154;4.164;2023-11-21T10:28:58;10.27;;;5.18;;
76292;SDS011;67256;51.154;4.164;2023-11-21T10:31:27;9.43;;;4.45;;
76292;SDS011;67256;51.154;4.164;2023-11-21T10:34:18;9.27;;;4.55;;
76292;SDS011;67256;51.154;4.164;2023-11-21T10:36:44;12.18;;;4.80;;
76292;SDS011;67256;51.154;4.164;2023-11-21T10:39:14;11.82;;;4.32;;
76292;SDS011;67256;51.154;4.164;2023-11-21T10:41:52;15.35;;;5.13;;
76292;SDS011;67256;51.154;4.164;2023-11-21T10:44:18;7.60;;;3.35;;
76292;SDS011;67256;51.154;4.164;2023-11-21T10:46:52;13.10;;;3.58;;
76292;SDS011;67256;51.154;4.164;2023-11-21T10:49:21;9.80;;;3.83;;
76292;SDS011;67256;51.154;4.164;2023-11-21T10:51:50;10.60;;;3.47;;
76292;SDS011;67256;51.154;4.164;2023-11-21T10:54:21;8.82;;;3.95;;
76292;SDS011;67256;51.154;4.164;2023-11-21T10:56:52;15.20;;;3.30;;
76292;SDS011;67256;51.154;4.164;2023-11-21T10:59:25;8.90;;;3.70;;
76292;SDS011;67256;51.154;4.164;2023-11-21T11:01:57;13.32;;;3.70;;
76292;SDS011;67256;51.154;4.164;2023-11-21T11:04:23;6.55;;;3.47;;
76292;SDS011;67256;51.154;4.164;2023-11-21T11:06:55;12.60;;;3.88;;
76292;SDS011;67256;51.154;4.164;2023-11-21T11:09:23;11.02;;;3.72;;
76292;SDS011;67256;51.154;4.164;2023-11-21T11:11:50;10.13;;;3.33;;
76292;SDS011;67256;51.154;4.164;2023-11-21T11:14:17;11.20;;;3.60;;
76292;SDS011;67256;51.154;4.164;2023-11-21T11:16:44;9.70;;;3.03;;
76292;SDS011;67256;51.154;4.164;2023-11-21T11:19:10;10.35;;;2.90;;
76292;SDS011;67256;51.154;4.164;2023-11-21T11:32:40;11.05;;;3.83;;
76292;SDS011;67256;51.154;4.164;2023-11-21T11:35:33;8.88;;;3.60;;
76292;SDS011;67256;51.154;4.164;2023-11-21T11:38:06;7.07;;;3.85;;
76292;SDS011;67256;51.154;4.164;2023-11-21T11:40:45;12.35;;;4.57;;
76292;SDS011;67256;51.154;4.164;2023-11-21T11:43:11;8.52;;;3.55;;
76292;SDS011;67256;51.154;4.164;2023-11-21T11:45:37;14.38;;;4.30;;
76292;SDS011;67256;51.154;4.164;2023-11-21T11:48:07;13.25;;;4.13;;
76292;SDS011;67256;51.154;4.164;2023-11-21T11:50:33;10.10;;;3.72;;
76292;SDS011;67256;51.154;4.164;2023-11-21T11:53:15;9.10;;;3.42;;
76292;SDS011;67256;51.154;4.164;2023-11-21T11:55:42;11.88;;;4.40;;
76292;SDS011;67256;51.154;4.164;2023-11-21T11:58:09;8.98;;;3.53;;
76292;SDS011;67256;51.154;4.164;2023-11-21T12:00:36;9.20;;;3.75;;
76292;SDS011;67256;51.154;4.164;2023-11-21T12:03:05;7.05;;;3.70;;
76292;SDS011;67256;51.154;4.164;2023-11-21T12:05:32;9.52;;;3.47;;
76292;SDS011;67256;51.154;4.164;2023-11-21T12:08:09;8.25;;;3.53;;
76292;SDS011;67256;51.154;4.164;2023-11-21T12:10:37;8.98;;;4.00;;
76292;SDS011;67256;51.154;4.164;2023-11-21T12:13:08;10.35;;;3.85;;
76292;SDS011;67256;51.154;4.164;2023-11-21T12:15:37;7.75;;;3.95;;
76292;SDS011;67256;51.154;4.164;2023-11-21T12:18:03;5.30;;;4.22;;
76292;SDS011;67256;51.154;4.164;2023-11-21T12:20:30;8.25;;;4.50;;
76292;SDS011;67256;51.154;4.164;2023-11-21T12:22:59;7.88;;;4.55;;
76292;SDS011;67256;51.154;4.164;2023-11-21T12:25:26;8.65;;;5.13;;
76292;SDS011;67256;51.154;4.164;2023-11-21T12:27:59;9.20;;;5.90;;
76292;SDS011;67256;51.154;4.164;2023-11-21T12:30:29;8.25;;;6.28;;
76292;SDS011;67256;51.154;4.164;2023-11-21T12:32:58;13.45;;;6.95;;
76292;SDS011;67256;51.154;4.164;2023-11-21T12:35:26;9.00;;;6.78;;
76292;SDS011;67256;51.154;4.164;2023-11-21T12:37:53;9.32;;;6.95;;
76292;SDS011;67256;51.154;4.164;2023-11-21T12:40:22;9.35;;;6.65;;
76292;SDS011;67256;51.154;4.164;2023-11-21T12:42:48;11.20;;;7.50;;
76292;SDS011;67256;51.154;4.164;2023-11-21T12:45:25;10.23;;;7.60;;
76292;SDS011;67256;51.154;4.164;2023-11-21T12:50:25;8.75;;;6.85;;
76292;SDS011;67256;51.154;4.164;2023-11-21T12:52:54;8.90;;;7.03;;
76292;SDS011;67256;51.154;4.164;2023-11-21T12:55:24;11.32;;;8.38;;
76292;SDS011;67256;51.154;4.164;2023-11-21T12:57:54;10.30;;;8.25;;
76292;SDS011;67256;51.154;4.164;2023-11-21T13:00:33;13.52;;;6.88;;
76292;SDS011;67256;51.154;4.164;2023-11-21T13:03:02;9.90;;;7.03;;
76292;SDS011;67256;51.154;4.164;2023-11-21T13:05:36;10.05;;;7.32;;
76292;SDS011;67256;51.154;4.164;2023-11-21T13:08:15;10.52;;;7.85;;
76292;SDS011;67256;51.154;4.164;2023-11-21T13:10:45;13.35;;;7.68;;
76292;SDS011;67256;51.154;4.164;2023-11-21T13:13:14;11.73;;;7.82;;
76292;SDS011;67256;51.154;4.164;2023-11-21T13:15:49;10.00;;;7.28;;
76292;SDS011;67256;51.154;4.164;2023-11-21T13:18:17;8.88;;;6.90;;
76292;SDS011;67256;51.154;4.164;2023-11-21T13:20:44;10.88;;;6.53;;
76292;SDS011;67256;51.154;4.164;2023-11-21T13:23:11;9.15;;;5.97;;
76292;SDS011;67256;51.154;4.164;2023-11-21T13:25:44;8.98;;;6.65;;
76292;SDS011;67256;51.154;4.164;2023-11-21T13:28:10;8.13;;;5.72;;
76292;SDS011;67256;51.154;4.164;2023-11-21T13:30:37;22.52;;;6.07;;
76292;SDS011;67256;51.154;4.164;2023-11-21T13:33:05;9.68;;;5.57;;
76292;SDS011;67256;51.154;4.164;2023-11-21T13:35:33;9.23;;;5.35;;
76292;SDS011;67256;51.154;4.164;2023-11-21T13:38:06;8.18;;;5.55;;
76292;SDS011;67256;51.154;4.164;2023-11-21T13:40:34;7.93;;;6.15;;
76292;SDS011;67256;51.154;4.164;2023-11-21T13:43:08;12.20;;;6.72;;
76292;SDS011;67256;51.154;4.164;2023-11-21T13:45:38;8.13;;;5.60;;
76292;SDS011;67256;51.154;4.164;2023-11-21T13:48:07;8.88;;;6.03;;
76292;SDS011;67256;51.154;4.164;2023-11-21T13:50:42;7.60;;;5.93;;
76292;SDS011;67256;51.154;4.164;2023-11-21T13:53:23;9.52;;;5.88;;
76292;SDS011;67256;51.154;4.164;2023-11-21T13:55:50;6.28;;;4.85;;
76292;SDS011;67256;51.154;4.164;2023-11-21T13:58:20;8.98;;;5.55;;
76292;SDS011;67256;51.154;4.164;2023-11-21T14:01:13;6.55;;;4.80;;
76292;SDS011;67256;51.154;4.164;2023-11-21T14:04:00;7.68;;;5.07;;
76292;SDS011;67256;51.154;4.164;2023-11-21T14:06:34;7.43;;;4.70;;
76292;SDS011;67256;51.154;4.164;2023-11-21T14:09:10;7.45;;;5.28;;
76292;SDS011;67256;51.154;4.164;2023-11-21T14:11:39;8.55;;;5.03;;
76292;SDS011;67256;51.154;4.164;2023-11-21T14:14:05;6.93;;;4.47;;
76292;SDS011;67256;51.154;4.164;2023-11-21T14:16:30;7.90;;;4.00;;
76292;SDS011;67256;51.154;4.164;2023-11-21T14:18:56;6.82;;;4.63;;
76292;SDS011;67256;51.154;4.164;2023-11-21T14:21:29;10.45;;;5.00;;
76292;SDS011;67256;51.154;4.164;2023-11-21T14:23:54;7.88;;;5.25;;
76292;SDS011;67256;51.154;4.164;2023-11-21T14:26:21;8.15;;;5.38;;
76292;SDS011;67256;51.154;4.164;2023-11-21T14:28:48;13.88;;;5.72;;
76292;SDS011;67256;51.154;4.164;2023-11-21T14:31:16;8.32;;;5.53;;
76292;SDS011;67256;51.154;4.164;2023-11-21T14:33:43;9.25;;;5.25;;
76292;SDS011;67256;51.154;4.164;2023-11-21T14:36:09;10.98;;;6.38;;
76292;SDS011;67256;51.154;4.164;2023-11-21T14:38:38;12.57;;;6.43;;
76292;SDS011;67256;51.154;4.164;2023-11-21T14:41:07;8.38;;;5.85;;
76292;SDS011;67256;51.154;4.164;2023-11-21T14:43:36;12.85;;;5.70;;
76292;SDS011;67256;51.154;4.164;2023-11-21T14:46:04;8.30;;;5.97;;
76292;SDS011;67256;51.154;4.164;2023-11-21T14:48:34;9.15;;;5.88;;